Marble Canyon, AZ (86036)

5:57 PM MST on March 27, 2017 (GMT -0700)
MPGEA3 | | Change Station

Elev 3355 ft 36.86 °N, 111.60 °W | Updated 44 minutes ago

Partly Cloudy
Partly Cloudy
66.0 °F
Feels Like 66.0 °F
N
-
Wind Variable Wind from North

Today
High -- | Low -- °F
--% Chance of Precip.
Yesterday
High -- | Low -- °F
Precip. -- in
Pressure 29.66 in
Visibility 10.0 miles
Clouds Scattered Clouds 10000 ft
Dew Point Not available.
Humidity Not available.
Rainfall 0.00 in
Snow Depth Not available.
6:19 AM 6:44 PM
Waning Crescent, 0% visible
METAR KPGA 280053Z AUTO 29017G27KT 10SM SCT100 13/01 A2975 RMK AO2 PK WND 28027/0047 SLP044 T01330011 TSNO
Pressure 29.66 in
Visibility 10.0 miles
Clouds Scattered Clouds 10000 ft
Dew Point Not available.
Humidity Not available.
Rainfall 0.00 in
Snow Depth Not available.
6:19 AM 6:44 PM
Waning Crescent, 0% visible
METAR KPGA 280053Z AUTO 29017G27KT 10SM SCT100 13/01 A2975 RMK AO2 PK WND 28027/0047 SLP044 T01330011 TSNO

Get Severe Weather Alerts

Thanks for signing up!

Be on the lookout for a verification email in your inbox.

You'll start receiving the daily forecast at 8 AM.

×

10-Day Weather Forecast

Almanac

Astronomy

Mar. 27, 2017 Rise Set
Actual Time
Civil Twilight
Nautical Twilight
Astronomical Twilight
Moon
Length of Visible Light
Length of Day
Tomorrow will be .
, % of the Moon is Illuminated

Today's Extremes

State Highs State Lows

Community

WunderPhotos

Upload Photos

1,962,540 photos uploaded!

WunderBlog® & News

Nearby

Air Quality

  Air Quality AQ Index Pollutant
Not available.

Snow Depth

Station Depth Elevation

Earthquake Activity

City Distance Mag. Time & Date
Minimum magnitude displayed is 2.5.

Earthquake Activity

City Distance Mag. Time & Date
Minimum magnitude displayed is 2.5.

Coastal Water Temperatures

Place Temperature

Stations

Nearby Weather Stations

Station Location Temp. Windchill Dew Point Humidity Wind Precip. Elev Updated Type
                   

Watches & Warnings

There are currently no watches in effect.